Athensville, Illinois
Current Conditions -  °F | °C
As of 5:15 AM on Thursday 23 Oct 2014 (Local Time) from KIJX Reporting Station
Clear Clear  
Wind Chill: 43°   Ceiling: Unl
Heat Index: 46°   Visibility: 10mi
Dew Point: 39°   Wind: 6mph
Humidity: 79%   Direction: 170°S
Pressure: 30.19"   Gusts: NA
Location:  39.491°N, 90.2996°W
Report Text: KIJX 231015Z AUTO 17005KT 10SM CLR 08/04 A3019 RMK AO2 T00760041
Loading
Personal Weather Stations






























Interactive Weather Map
Tropical Storm Tracking
New forecast layout! Learn more

10-Day Weather Forecast

Advertisements
Track Severe Weather on mobile